createdAt,value
2019-02-14T00:00:45.438Z,1003.12
2019-02-14T00:01:45.604Z,1003.10
2019-02-14T00:02:45.786Z,1003.15
2019-02-14T00:03:45.962Z,1003.12
2019-02-14T00:04:46.144Z,1003.13
2019-02-14T00:05:46.320Z,1003.14
2019-02-14T00:06:46.507Z,1003.17
2019-02-14T00:07:46.699Z,1003.21
2019-02-14T00:08:46.876Z,1003.19
2019-02-14T00:09:47.050Z,1003.20
2019-02-14T00:10:47.228Z,1003.19
2019-02-14T00:11:47.407Z,1003.21
2019-02-14T00:12:47.599Z,1003.19
2019-02-14T00:13:47.778Z,1003.20
2019-02-14T00:14:47.967Z,1003.20
2019-02-14T00:15:48.143Z,1003.17
2019-02-14T00:16:48.336Z,1003.19
2019-02-14T00:17:48.509Z,1003.18
2019-02-14T00:18:48.681Z,1003.13
2019-02-14T00:19:48.859Z,1003.15
2019-02-14T00:20:49.040Z,1003.12
2019-02-14T00:21:49.215Z,1003.15
2019-02-14T00:22:49.394Z,1003.13
2019-02-14T00:23:49.595Z,1003.13
2019-02-14T00:24:49.772Z,1003.13
2019-02-14T00:25:49.944Z,1003.14
2019-02-14T00:26:50.124Z,1003.11
2019-02-14T00:27:50.304Z,1003.11
2019-02-14T00:28:50.479Z,1003.21
2019-02-14T00:29:50.659Z,1003.23
2019-02-14T00:30:50.836Z,1003.19
2019-02-14T00:31:51.014Z,1003.20
2019-02-14T00:32:51.195Z,1003.19
2019-02-14T00:33:51.386Z,1003.19
2019-02-14T00:34:51.558Z,1003.15
2019-02-14T00:35:51.731Z,1003.16
2019-02-14T00:36:51.910Z,1003.11
2019-02-14T00:37:52.086Z,1003.07
2019-02-14T00:38:52.269Z,1003.06
2019-02-14T00:39:52.447Z,1003.05
2019-02-14T00:40:52.622Z,1003.00
2019-02-14T00:41:52.814Z,1003.02
2019-02-14T00:42:52.990Z,1003.01
2019-02-14T00:43:53.163Z,1003.03
2019-02-14T00:44:53.344Z,1003.02
2019-02-14T00:45:53.528Z,1003.02
2019-02-14T00:46:53.701Z,1002.99
2019-02-14T00:47:53.885Z,1003.00
2019-02-14T00:48:54.061Z,1002.97
2019-02-14T00:49:54.237Z,1003.01
2019-02-14T00:50:54.426Z,1003.04
2019-02-14T00:51:54.596Z,1003.03
2019-02-14T00:52:54.771Z,1003.06
2019-02-14T00:53:54.954Z,1003.06
2019-02-14T00:54:55.129Z,1003.08
2019-02-14T00:55:55.306Z,1003.09
2019-02-14T00:56:55.486Z,1003.08
2019-02-14T00:57:55.665Z,1003.08
2019-02-14T00:58:55.846Z,1003.09
2019-02-14T00:59:56.034Z,1003.13
2019-02-14T01:00:56.212Z,1003.12
2019-02-14T01:01:56.391Z,1003.11
2019-02-14T01:02:56.569Z,1003.08
2019-02-14T01:03:56.750Z,1003.07
2019-02-14T01:04:56.926Z,1003.05
2019-02-14T01:05:57.107Z,1003.00
2019-02-14T01:06:57.285Z,1002.99
2019-02-14T01:07:57.458Z,1002.99
2019-02-14T01:08:57.634Z,1003.01
2019-02-14T01:09:57.830Z,1003.02
2019-02-14T01:10:58.017Z,1002.99
2019-02-14T01:11:58.207Z,1003.01
2019-02-14T01:12:58.379Z,1002.98
2019-02-14T01:13:58.560Z,1002.97
2019-02-14T01:14:58.741Z,1003.04
2019-02-14T01:15:58.914Z,1003.08
2019-02-14T01:16:59.098Z,1003.08
2019-02-14T01:17:59.275Z,1003.10
2019-02-14T01:18:59.462Z,1003.08
2019-02-14T01:19:59.646Z,1003.13
2019-02-14T01:20:59.848Z,1003.07
2019-02-14T01:22:00.032Z,1003.10
2019-02-14T01:23:00.213Z,1003.06
2019-02-14T01:24:00.409Z,1003.10
2019-02-14T01:25:00.574Z,1003.10
2019-02-14T01:26:00.753Z,1003.11
2019-02-14T01:27:00.931Z,1003.13
2019-02-14T01:28:01.107Z,1003.15
2019-02-14T01:29:01.286Z,1003.17
2019-02-14T01:30:01.467Z,1003.19
2019-02-14T01:31:01.665Z,1003.19
2019-02-14T01:32:01.846Z,1003.24
2019-02-14T01:33:02.081Z,1003.22
2019-02-14T01:34:02.200Z,1003.25
2019-02-14T01:35:02.385Z,1003.26
2019-02-14T01:36:02.555Z,1003.27
2019-02-14T01:37:02.736Z,1003.26
2019-02-14T01:38:02.925Z,1003.28
2019-02-14T01:39:03.091Z,1003.25
2019-02-14T01:40:03.273Z,1003.22
2019-02-14T01:41:03.441Z,1003.23
2019-02-14T01:42:03.637Z,1003.18
2019-02-14T01:43:03.820Z,1003.14
2019-02-14T01:44:04.016Z,1003.17
2019-02-14T01:45:04.196Z,1003.15
2019-02-14T01:46:04.347Z,1003.18
2019-02-14T01:47:04.537Z,1003.19
2019-02-14T01:48:04.719Z,1003.22
2019-02-14T01:49:04.901Z,1003.20
2019-02-14T01:50:05.080Z,1003.19
2019-02-14T01:51:05.248Z,1003.20
2019-02-14T01:52:05.431Z,1003.23
2019-02-14T01:53:05.619Z,1003.26
2019-02-14T01:54:05.792Z,1003.25
2019-02-14T01:55:05.973Z,1003.22
2019-02-14T01:56:06.154Z,1003.22
2019-02-14T01:57:06.354Z,1003.26
2019-02-14T01:58:06.517Z,1003.26
2019-02-14T01:59:06.684Z,1003.22
2019-02-14T02:00:06.862Z,1003.24
2019-02-14T02:01:07.044Z,1003.21
2019-02-14T02:02:07.220Z,1003.23
2019-02-14T02:03:07.398Z,1003.21
2019-02-14T02:04:07.573Z,1003.26
2019-02-14T02:05:07.740Z,1003.28
2019-02-14T02:06:07.907Z,1003.25
2019-02-14T02:07:08.084Z,1003.27
2019-02-14T02:08:09.032Z,1003.26
2019-02-14T02:09:08.438Z,1003.27
2019-02-14T02:10:08.618Z,1003.23
2019-02-14T02:11:08.804Z,1003.25
2019-02-14T02:12:08.980Z,1003.20
2019-02-14T02:13:09.155Z,1003.19
2019-02-14T02:14:09.334Z,1003.17
2019-02-14T02:15:09.511Z,1003.14
2019-02-14T02:16:09.700Z,1003.16
2019-02-14T02:17:09.874Z,1003.16
2019-02-14T02:18:10.060Z,1003.17
2019-02-14T02:19:10.244Z,1003.20
2019-02-14T02:20:10.414Z,1003.23
2019-02-14T02:21:10.604Z,1003.22
2019-02-14T02:22:10.762Z,1003.21
2019-02-14T02:23:10.947Z,1003.19
2019-02-14T02:24:11.121Z,1003.22
2019-02-14T02:25:11.302Z,1003.19
2019-02-14T02:26:11.480Z,1003.18
2019-02-14T02:27:11.662Z,1003.18
2019-02-14T02:28:11.841Z,1003.22
2019-02-14T02:29:12.010Z,1003.25
2019-02-14T02:30:12.206Z,1003.18
2019-02-14T02:31:12.383Z,1003.20
2019-02-14T02:32:12.563Z,1003.18
2019-02-14T02:33:12.735Z,1003.20
2019-02-14T02:34:12.913Z,1003.21
2019-02-14T02:35:13.092Z,1003.18
2019-02-14T02:36:13.275Z,1003.21
2019-02-14T02:37:13.441Z,1003.16
2019-02-14T02:38:13.625Z,1003.22
2019-02-14T02:39:13.796Z,1003.21
2019-02-14T02:40:13.979Z,1003.19
2019-02-14T02:41:14.153Z,1003.18
2019-02-14T02:42:14.333Z,1003.19
2019-02-14T02:43:14.510Z,1003.19
2019-02-14T02:44:14.688Z,1003.22
2019-02-14T02:45:14.880Z,1003.23
2019-02-14T02:46:15.060Z,1003.25
2019-02-14T02:47:15.235Z,1003.27
2019-02-14T02:48:15.422Z,1003.28
2019-02-14T02:49:15.607Z,1003.26
2019-02-14T02:50:15.785Z,1003.28
2019-02-14T02:51:15.966Z,1003.28
2019-02-14T02:52:16.145Z,1003.27
2019-02-14T02:53:16.310Z,1003.27
2019-02-14T02:54:16.490Z,1003.34
2019-02-14T02:55:16.666Z,1003.31
2019-02-14T02:56:16.842Z,1003.35
2019-02-14T02:57:17.013Z,1003.41
2019-02-14T02:58:17.193Z,1003.41
2019-02-14T02:59:17.370Z,1003.39
2019-02-14T03:00:17.548Z,1003.36
2019-02-14T03:01:17.729Z,1003.33
2019-02-14T03:02:17.907Z,1003.28
2019-02-14T03:03:18.093Z,1003.28
2019-02-14T03:04:18.268Z,1003.29
2019-02-14T03:05:18.449Z,1003.26
2019-02-14T03:06:18.622Z,1003.25
2019-02-14T03:07:18.806Z,1003.27
2019-02-14T03:08:18.989Z,1003.27
2019-02-14T03:09:19.192Z,1003.24
2019-02-14T03:10:19.330Z,1003.21
2019-02-14T03:11:19.518Z,1003.22
2019-02-14T03:12:19.696Z,1003.24
2019-02-14T03:13:19.874Z,1003.24
2019-02-14T03:14:20.056Z,1003.22
2019-02-14T03:15:20.236Z,1003.22
2019-02-14T03:16:20.406Z,1003.23
2019-02-14T03:17:20.583Z,1003.22
2019-02-14T03:18:20.768Z,1003.28
2019-02-14T03:19:20.945Z,1003.26
2019-02-14T03:20:21.118Z,1003.25
2019-02-14T03:21:21.300Z,1003.24
2019-02-14T03:22:21.473Z,1003.26
2019-02-14T03:23:21.653Z,1003.27
2019-02-14T03:24:21.828Z,1003.29
2019-02-14T03:25:22.010Z,1003.26
2019-02-14T03:26:22.182Z,1003.30
2019-02-14T03:27:22.362Z,1003.36
2019-02-14T03:28:22.544Z,1003.40
2019-02-14T03:29:22.729Z,1003.38
2019-02-14T03:30:22.905Z,1003.37
2019-02-14T03:31:23.084Z,1003.44
2019-02-14T03:32:23.273Z,1003.40
2019-02-14T03:33:23.439Z,1003.42
2019-02-14T03:34:23.623Z,1003.47
2019-02-14T03:35:23.792Z,1003.45
2019-02-14T03:36:23.973Z,1003.46
2019-02-14T03:37:24.151Z,1003.44
2019-02-14T03:38:24.336Z,1003.37
2019-02-14T03:39:24.524Z,1003.37
2019-02-14T03:40:24.698Z,1003.39
2019-02-14T03:41:24.880Z,1003.40
2019-02-14T03:42:25.056Z,1003.43
2019-02-14T03:43:25.236Z,1003.47
2019-02-14T03:44:25.412Z,1003.48
2019-02-14T03:45:25.588Z,1003.53
2019-02-14T03:46:25.770Z,1003.52
2019-02-14T03:47:25.965Z,1003.53
2019-02-14T03:48:26.141Z,1003.50
2019-02-14T03:49:26.329Z,1003.48
2019-02-14T03:50:26.513Z,1003.45
2019-02-14T03:51:26.709Z,1003.46
2019-02-14T03:52:26.871Z,1003.48
2019-02-14T03:53:27.051Z,1003.50
2019-02-14T03:54:27.243Z,1003.51
2019-02-14T03:55:27.414Z,1003.52
2019-02-14T03:56:27.598Z,1003.57
2019-02-14T03:57:27.789Z,1003.59
2019-02-14T03:58:27.954Z,1003.60
2019-02-14T03:59:28.127Z,1003.60
2019-02-14T04:00:28.310Z,1003.62
2019-02-14T04:01:28.481Z,1003.58
2019-02-14T04:02:28.653Z,1003.55
2019-02-14T04:03:28.855Z,1003.57
2019-02-14T04:04:29.036Z,1003.56
2019-02-14T04:05:29.218Z,1003.56
2019-02-14T04:06:29.389Z,1003.51
2019-02-14T04:07:29.576Z,1003.53
2019-02-14T04:08:29.757Z,1003.57
2019-02-14T04:09:29.936Z,1003.58
2019-02-14T04:10:30.117Z,1003.59
2019-02-14T04:11:30.290Z,1003.57
2019-02-14T04:12:30.472Z,1003.57
2019-02-14T04:13:30.649Z,1003.58
2019-02-14T04:14:30.827Z,1003.55
2019-02-14T04:15:31.011Z,1003.58
2019-02-14T04:16:31.189Z,1003.54
2019-02-14T04:17:31.365Z,1003.52
2019-02-14T04:18:31.539Z,1003.57
2019-02-14T04:19:31.718Z,1003.57
2019-02-14T04:20:31.901Z,1003.59
2019-02-14T04:21:32.080Z,1003.56
2019-02-14T04:22:32.255Z,1003.57
2019-02-14T04:23:32.433Z,1003.53
2019-02-14T04:24:32.607Z,1003.50
2019-02-14T04:25:32.808Z,1003.53
2019-02-14T04:26:32.976Z,1003.50
2019-02-14T04:27:33.154Z,1003.46
2019-02-14T04:28:33.329Z,1003.42
2019-02-14T04:29:33.509Z,1003.43
2019-02-14T04:30:33.683Z,1003.39
2019-02-14T04:31:33.883Z,1003.38
2019-02-14T04:32:34.702Z,1003.39
2019-02-14T04:33:34.235Z,1003.39
2019-02-14T04:34:34.426Z,1003.37
2019-02-14T04:35:34.604Z,1003.39
2019-02-14T04:36:36.271Z,1003.43
2019-02-14T04:37:34.963Z,1003.42
2019-02-14T04:38:35.132Z,1003.46
2019-02-14T04:39:35.314Z,1003.50
2019-02-14T04:40:35.492Z,1003.50
2019-02-14T04:41:35.664Z,1003.47
2019-02-14T04:42:35.840Z,1003.49
2019-02-14T04:43:36.020Z,1003.46
2019-02-14T04:44:36.202Z,1003.47
2019-02-14T04:45:36.376Z,1003.48
2019-02-14T04:46:36.555Z,1003.44
2019-02-14T04:47:36.740Z,1003.43
2019-02-14T04:48:36.917Z,1003.45
2019-02-14T04:49:37.094Z,1003.42
2019-02-14T04:50:37.276Z,1003.43
2019-02-14T04:51:37.452Z,1003.42
2019-02-14T04:52:37.634Z,1003.43
2019-02-14T04:53:37.807Z,1003.46
2019-02-14T04:54:37.983Z,1003.43
2019-02-14T04:55:39.126Z,1003.43
2019-02-14T04:56:38.338Z,1003.43
2019-02-14T04:57:38.515Z,1003.40
2019-02-14T04:58:38.693Z,1003.43
2019-02-14T04:59:38.884Z,1003.42
2019-02-14T05:00:39.060Z,1003.36
2019-02-14T05:01:39.232Z,1003.33
2019-02-14T05:02:39.410Z,1003.30
2019-02-14T05:03:39.587Z,1003.27
2019-02-14T05:04:39.765Z,1003.24
2019-02-14T05:05:39.939Z,1003.25
2019-02-14T05:06:44.375Z,1003.30
2019-02-14T05:07:40.304Z,1003.29
2019-02-14T05:08:40.470Z,1003.34
2019-02-14T05:09:40.654Z,1003.37
2019-02-14T05:10:40.830Z,1003.35
2019-02-14T05:11:41.013Z,1003.39
2019-02-14T05:12:41.184Z,1003.41
2019-02-14T05:13:41.364Z,1003.40
2019-02-14T05:14:41.539Z,1003.44
2019-02-14T05:15:41.715Z,1003.47
2019-02-14T05:16:41.891Z,1003.48
2019-02-14T05:17:42.076Z,1003.54
2019-02-14T05:18:42.255Z,1003.49
2019-02-14T05:19:42.453Z,1003.49
2019-02-14T05:20:42.604Z,1003.43
2019-02-14T05:21:42.783Z,1003.41
2019-02-14T05:22:42.961Z,1003.40
2019-02-14T05:23:43.142Z,1003.37
2019-02-14T05:24:43.326Z,1003.30
2019-02-14T05:25:43.511Z,1003.30
2019-02-14T05:26:43.689Z,1003.25
2019-02-14T05:27:43.862Z,1003.24
2019-02-14T05:28:44.042Z,1003.28
2019-02-14T05:29:44.222Z,1003.30
2019-02-14T05:30:44.398Z,1003.30
2019-02-14T05:31:44.584Z,1003.30
2019-02-14T05:32:44.764Z,1003.31
2019-02-14T05:33:44.963Z,1003.34
2019-02-14T05:34:45.113Z,1003.31
2019-02-14T05:35:45.300Z,1003.33
2019-02-14T05:36:52.705Z,1003.38
2019-02-14T05:37:45.650Z,1003.34
2019-02-14T05:38:45.828Z,1003.32
2019-02-14T05:39:46.009Z,1003.37
2019-02-14T05:40:46.183Z,1003.44
2019-02-14T05:41:46.370Z,1003.47
2019-02-14T05:42:46.541Z,1003.51
2019-02-14T05:43:46.719Z,1003.55
2019-02-14T05:44:46.895Z,1003.47
2019-02-14T05:45:47.091Z,1003.49
2019-02-14T05:46:47.257Z,1003.50
2019-02-14T05:47:47.463Z,1003.48
2019-02-14T05:48:47.637Z,1003.46
2019-02-14T05:49:47.819Z,1003.43
2019-02-14T05:50:48.000Z,1003.41
2019-02-14T05:51:48.175Z,1003.43
2019-02-14T05:52:48.355Z,1003.45
2019-02-14T05:53:48.542Z,1003.44
2019-02-14T05:54:48.716Z,1003.44
2019-02-14T05:55:48.881Z,1003.45
2019-02-14T05:56:49.069Z,1003.48
2019-02-14T05:57:49.234Z,1003.50
2019-02-14T05:58:49.400Z,1003.50
2019-02-14T05:59:49.579Z,1003.47
2019-02-14T06:00:49.756Z,1003.50
2019-02-14T06:01:49.935Z,1003.48
2019-02-14T06:02:50.122Z,1003.50
2019-02-14T06:03:50.297Z,1003.46
2019-02-14T06:04:50.475Z,1003.48
2019-02-14T06:05:50.654Z,1003.48
2019-02-14T06:06:50.832Z,1003.51
2019-02-14T06:07:51.009Z,1003.52
2019-02-14T06:08:51.190Z,1003.56
2019-02-14T06:09:51.390Z,1003.52
2019-02-14T06:10:51.546Z,1003.56
2019-02-14T06:11:51.724Z,1003.56
2019-02-14T06:12:51.901Z,1003.55
2019-02-14T06:13:52.083Z,1003.55
2019-02-14T06:14:52.258Z,1003.57
2019-02-14T06:15:52.439Z,1003.58
2019-02-14T06:16:52.623Z,1003.53
2019-02-14T06:17:52.804Z,1003.58
2019-02-14T06:18:52.970Z,1003.58
2019-02-14T06:19:53.151Z,1003.60
2019-02-14T06:20:53.325Z,1003.63
2019-02-14T06:21:53.503Z,1003.65
2019-02-14T06:22:53.688Z,1003.68
2019-02-14T06:23:53.876Z,1003.65
2019-02-14T06:24:54.060Z,1003.77
2019-02-14T06:25:54.234Z,1003.75
2019-02-14T06:26:54.406Z,1003.71
2019-02-14T06:27:54.588Z,1003.71
2019-02-14T06:28:54.766Z,1003.71
2019-02-14T06:29:54.943Z,1003.76
2019-02-14T06:30:55.123Z,1003.79
2019-02-14T06:31:55.588Z,1003.85
2019-02-14T06:32:55.519Z,1003.93
2019-02-14T06:33:55.696Z,1004.00
2019-02-14T06:34:55.876Z,1004.04
2019-02-14T06:35:56.094Z,1004.03
2019-02-14T06:36:56.230Z,1004.04
2019-02-14T06:37:56.410Z,1004.06
2019-02-14T06:38:56.586Z,1004.06
2019-02-14T06:39:56.769Z,1004.10
2019-02-14T06:40:56.948Z,1004.05
2019-02-14T06:41:57.129Z,1004.09
2019-02-14T06:42:57.300Z,1004.07
2019-02-14T06:43:57.491Z,1004.07
2019-02-14T06:44:57.671Z,1004.05
2019-02-14T06:45:57.851Z,1004.01
2019-02-14T06:46:58.033Z,1004.05
2019-02-14T06:47:58.206Z,1004.09
2019-02-14T06:48:58.437Z,1004.10
2019-02-14T06:49:58.564Z,1004.16
2019-02-14T06:50:58.748Z,1004.18
2019-02-14T06:51:58.928Z,1004.18
2019-02-14T06:52:59.104Z,1004.22
2019-02-14T06:53:59.282Z,1004.24
2019-02-14T06:54:59.464Z,1004.26
2019-02-14T06:55:59.642Z,1004.23
2019-02-14T06:56:59.816Z,1004.26
2019-02-14T06:57:59.998Z,1004.26
2019-02-14T06:59:00.173Z,1004.31
2019-02-14T07:00:00.352Z,1004.34
2019-02-14T07:01:00.536Z,1004.37
2019-02-14T07:02:00.716Z,1004.38
2019-02-14T07:03:00.897Z,1004.41
2019-02-14T07:04:01.074Z,1004.44
2019-02-14T07:05:01.273Z,1004.44
2019-02-14T07:06:01.447Z,1004.45
2019-02-14T07:07:01.623Z,1004.48
2019-02-14T07:08:01.812Z,1004.47
2019-02-14T07:09:01.982Z,1004.47
2019-02-14T07:10:02.161Z,1004.51
2019-02-14T07:11:02.342Z,1004.44
2019-02-14T07:12:02.556Z,1004.49
2019-02-14T07:13:02.687Z,1004.53
2019-02-14T07:14:02.880Z,1004.53
2019-02-14T07:15:03.055Z,1004.54
2019-02-14T07:16:03.235Z,1004.59
2019-02-14T07:17:03.413Z,1004.58
2019-02-14T07:18:03.590Z,1004.63
2019-02-14T07:19:03.779Z,1004.67
2019-02-14T07:20:03.965Z,1004.63
2019-02-14T07:21:04.143Z,1004.69
2019-02-14T07:22:04.319Z,1004.68
2019-02-14T07:23:04.494Z,1004.71
2019-02-14T07:24:04.679Z,1004.78
2019-02-14T07:25:04.853Z,1004.82
2019-02-14T07:26:05.027Z,1004.95
2019-02-14T07:27:05.206Z,1005.08
2019-02-14T07:28:05.384Z,1005.02
2019-02-14T07:29:05.563Z,1004.94
2019-02-14T07:30:05.738Z,1004.88
2019-02-14T07:31:05.943Z,1004.82
2019-02-14T07:32:06.113Z,1004.78
2019-02-14T07:33:06.307Z,1004.87
2019-02-14T07:34:06.482Z,1004.79
2019-02-14T07:35:06.669Z,1004.73
2019-02-14T07:36:06.852Z,1004.72
2019-02-14T07:37:07.028Z,1004.67
2019-02-14T07:38:07.211Z,1004.67
2019-02-14T07:39:07.398Z,1004.66
2019-02-14T07:40:07.578Z,1004.72
2019-02-14T07:41:07.752Z,1004.77
2019-02-14T07:42:07.938Z,1004.77
2019-02-14T07:43:08.120Z,1004.79
2019-02-14T07:44:08.304Z,1004.83
2019-02-14T07:45:08.478Z,1004.86
2019-02-14T07:46:08.659Z,1004.91
2019-02-14T07:47:08.835Z,1004.93
2019-02-14T07:48:09.017Z,1005.01
2019-02-14T07:49:09.191Z,1005.01
2019-02-14T07:50:09.370Z,1005.04
2019-02-14T07:51:09.549Z,1005.11
2019-02-14T07:52:09.739Z,1005.10
2019-02-14T07:53:09.922Z,1005.11
2019-02-14T07:54:10.100Z,1005.10
2019-02-14T07:55:10.355Z,1005.13
2019-02-14T07:56:10.474Z,1005.09
2019-02-14T07:57:10.653Z,1005.09
2019-02-14T07:58:10.827Z,1005.02
2019-02-14T07:59:11.008Z,1004.98
2019-02-14T08:00:11.196Z,1004.97
2019-02-14T08:01:11.380Z,1005.04
2019-02-14T08:02:11.564Z,1005.18
2019-02-14T08:03:11.742Z,1005.20
2019-02-14T08:04:11.921Z,1005.39
2019-02-14T08:05:12.123Z,1005.40
2019-02-14T08:06:12.297Z,1005.45
2019-02-14T08:07:12.475Z,1005.54
2019-02-14T08:08:12.657Z,1005.60
2019-02-14T08:09:12.840Z,1005.61
2019-02-14T08:10:13.019Z,1005.64
2019-02-14T08:11:13.205Z,1005.63
2019-02-14T08:12:13.387Z,1005.74
2019-02-14T08:13:13.580Z,1005.74
2019-02-14T08:14:13.768Z,1005.64
2019-02-14T08:15:13.949Z,1005.58
2019-02-14T08:16:14.141Z,1005.48
2019-02-14T08:17:14.329Z,1005.42
2019-02-14T08:18:14.514Z,1005.38
2019-02-14T08:19:14.723Z,1005.42
2019-02-14T08:20:14.893Z,1005.31
2019-02-14T08:21:15.093Z,1005.23
2019-02-14T08:22:15.287Z,1005.11
2019-02-14T08:23:15.475Z,1005.11
2019-02-14T08:24:15.657Z,1005.10
2019-02-14T08:25:15.841Z,1005.09
2019-02-14T08:26:16.022Z,1005.06
2019-02-14T08:27:16.209Z,1005.01
2019-02-14T08:28:16.392Z,1005.02
2019-02-14T08:29:16.578Z,1004.95
2019-02-14T08:30:16.777Z,1004.96
2019-02-14T08:31:16.946Z,1004.97
2019-02-14T08:32:17.127Z,1004.99
2019-02-14T08:33:17.317Z,1005.08
2019-02-14T08:34:17.509Z,1005.12
2019-02-14T08:35:17.694Z,1005.12
2019-02-14T08:36:17.878Z,1005.15
2019-02-14T08:37:18.056Z,1005.20
2019-02-14T08:38:18.243Z,1005.17
2019-02-14T08:39:18.425Z,1005.12
2019-02-14T08:40:18.617Z,1005.11
2019-02-14T08:41:18.845Z,1005.10
2019-02-14T08:42:19.025Z,1005.17
2019-02-14T08:43:19.218Z,1005.16
2019-02-14T08:44:19.392Z,1005.11
2019-02-14T08:45:19.579Z,1005.04
2019-02-14T08:46:19.769Z,1005.01
2019-02-14T08:47:19.945Z,1004.96
2019-02-14T08:48:20.125Z,1004.93
2019-02-14T08:49:20.308Z,1004.89
2019-02-14T08:50:20.484Z,1004.94
2019-02-14T08:51:20.670Z,1004.88
2019-02-14T08:52:20.854Z,1004.89
2019-02-14T08:53:21.035Z,1004.90
2019-02-14T08:54:21.221Z,1004.90
2019-02-14T08:55:21.401Z,1004.95
2019-02-14T08:56:21.591Z,1004.93
2019-02-14T08:57:21.775Z,1004.96
2019-02-14T08:58:21.971Z,1004.96
2019-02-14T08:59:22.136Z,1004.99
2019-02-14T09:00:22.319Z,1004.96
2019-02-14T09:01:22.509Z,1004.98
2019-02-14T09:02:22.688Z,1004.98
2019-02-14T09:03:22.901Z,1005.00
2019-02-14T09:04:23.079Z,1004.99
2019-02-14T09:05:23.256Z,1004.98
2019-02-14T09:06:23.452Z,1005.04
2019-02-14T09:07:23.633Z,1005.06
2019-02-14T09:08:23.813Z,1005.03
2019-02-14T09:09:24.004Z,1005.09
2019-02-14T09:10:24.191Z,1005.08
2019-02-14T09:11:24.374Z,1005.09
2019-02-14T09:12:24.564Z,1005.02
2019-02-14T09:13:24.748Z,1004.96
2019-02-14T09:14:24.934Z,1005.03
2019-02-14T09:15:25.114Z,1004.99
2019-02-14T09:16:25.294Z,1004.94
2019-02-14T09:17:25.488Z,1004.88
2019-02-14T09:18:25.661Z,1004.85
2019-02-14T09:19:25.842Z,1004.83
2019-02-14T09:20:26.035Z,1004.89
2019-02-14T09:21:26.214Z,1004.88
2019-02-14T09:22:26.410Z,1004.90
2019-02-14T09:23:26.589Z,1004.93
2019-02-14T09:24:26.770Z,1004.93
2019-02-14T09:25:26.968Z,1004.99
2019-02-14T09:26:27.136Z,1005.01
2019-02-14T09:27:27.324Z,1005.06
2019-02-14T09:28:27.510Z,1005.11
2019-02-14T09:29:27.706Z,1005.05
2019-02-14T09:30:27.903Z,1004.98
2019-02-14T09:31:28.085Z,1005.00
2019-02-14T09:32:28.267Z,1004.94
2019-02-14T09:33:28.464Z,1004.93
2019-02-14T09:34:28.645Z,1004.93
2019-02-14T09:35:28.830Z,1004.89
2019-02-14T09:36:29.016Z,1004.90
2019-02-14T09:37:29.195Z,1004.94
2019-02-14T09:38:29.372Z,1004.97
2019-02-14T09:39:29.561Z,1005.04
2019-02-14T09:40:29.745Z,1005.13
2019-02-14T09:41:29.932Z,1005.11
2019-02-14T09:42:30.136Z,1005.17
2019-02-14T09:43:30.318Z,1005.09
2019-02-14T09:44:30.483Z,1005.10
2019-02-14T09:45:30.660Z,1005.10
2019-02-14T09:46:30.850Z,1005.10
2019-02-14T09:47:31.032Z,1005.08
2019-02-14T09:48:31.255Z,1005.06
2019-02-14T09:49:31.413Z,1005.15
2019-02-14T09:50:31.592Z,1005.31
2019-02-14T09:51:31.785Z,1005.32
2019-02-14T09:52:31.973Z,1005.33
2019-02-14T09:53:32.165Z,1005.28
2019-02-14T09:54:32.348Z,1005.27
2019-02-14T09:55:32.539Z,1005.22
2019-02-14T09:56:32.720Z,1005.20
2019-02-14T09:57:32.910Z,1005.25
2019-02-14T09:58:33.113Z,1005.20
2019-02-14T09:59:33.287Z,1005.20
2019-02-14T10:00:33.470Z,1005.15
2019-02-14T10:01:33.674Z,1005.12
2019-02-14T10:02:33.848Z,1005.10
2019-02-14T10:03:34.032Z,1005.09
2019-02-14T10:04:34.224Z,1005.05
2019-02-14T10:05:34.417Z,1005.07
2019-02-14T10:06:36.656Z,1005.05
2019-02-14T10:07:34.814Z,1005.09
2019-02-14T10:08:35.005Z,1005.10
2019-02-14T10:09:35.183Z,1005.14
2019-02-14T10:10:35.411Z,1005.17
2019-02-14T10:11:35.593Z,1005.17
2019-02-14T10:12:35.764Z,1005.13
2019-02-14T10:13:35.945Z,1005.09
2019-02-14T10:14:36.124Z,1005.07
2019-02-14T10:15:36.306Z,1005.07
2019-02-14T10:16:36.496Z,1005.05
2019-02-14T10:17:36.668Z,1005.01
2019-02-14T10:18:36.858Z,1005.00
2019-02-14T10:19:37.059Z,1005.05
2019-02-14T10:20:37.240Z,1005.08
2019-02-14T10:21:37.420Z,1005.08
2019-02-14T10:22:37.607Z,1005.13
2019-02-14T10:23:37.787Z,1005.12
2019-02-14T10:24:37.973Z,1005.06
2019-02-14T10:25:38.159Z,1005.05
2019-02-14T10:26:38.366Z,1005.00
2019-02-14T10:27:38.531Z,1004.99
2019-02-14T10:28:38.728Z,1005.01
2019-02-14T10:29:38.902Z,1005.03
2019-02-14T10:30:40.268Z,1005.07
2019-02-14T10:31:39.330Z,1005.06
2019-02-14T10:32:39.476Z,1005.06
2019-02-14T10:33:39.669Z,1005.08
2019-02-14T10:34:39.857Z,1005.10
2019-02-14T10:35:40.044Z,1005.12
2019-02-14T10:36:40.231Z,1005.10
2019-02-14T10:37:40.443Z,1005.12
2019-02-14T10:38:40.638Z,1005.10
2019-02-14T10:39:40.816Z,1005.04
2019-02-14T10:40:40.999Z,1004.97
2019-02-14T10:41:41.188Z,1004.89
2019-02-14T10:42:41.377Z,1004.85
2019-02-14T10:43:48.679Z,1004.85
2019-02-14T10:44:41.745Z,1004.94
2019-02-14T10:45:41.960Z,1004.99
2019-02-14T10:46:42.146Z,1005.03
2019-02-14T10:47:42.323Z,1005.06
2019-02-14T10:48:42.518Z,1005.08
2019-02-14T10:49:42.709Z,1005.08
2019-02-14T10:50:42.901Z,1005.13
2019-02-14T10:51:43.086Z,1005.07
2019-02-14T10:52:43.286Z,1005.06
2019-02-14T10:53:43.475Z,1005.04
2019-02-14T10:54:43.638Z,1005.01
2019-02-14T10:55:43.839Z,1004.99
2019-02-14T10:56:44.021Z,1005.01
2019-02-14T10:57:44.215Z,1005.00
2019-02-14T10:58:44.426Z,1005.04
2019-02-14T10:59:44.600Z,1005.07
2019-02-14T11:00:45.272Z,1005.07
2019-02-14T11:01:44.979Z,1005.14
2019-02-14T11:02:45.188Z,1005.12
2019-02-14T11:03:45.382Z,1005.19
2019-02-14T11:04:47.051Z,1005.16
2019-02-14T11:05:45.766Z,1005.20
2019-02-14T11:06:45.958Z,1005.19
2019-02-14T11:07:46.159Z,1005.18
2019-02-14T11:08:46.350Z,1005.10
2019-02-14T11:09:46.525Z,1005.10
2019-02-14T11:10:46.716Z,1005.04
2019-02-14T11:11:46.903Z,1005.04
2019-02-14T11:12:47.106Z,1005.05
2019-02-14T11:13:47.278Z,1005.05
2019-02-14T11:14:47.515Z,1005.03
2019-02-14T11:15:47.656Z,1005.02
2019-02-14T11:16:47.837Z,1005.04
2019-02-14T11:17:49.088Z,1005.01
2019-02-14T11:18:48.211Z,1005.06
2019-02-14T11:19:48.397Z,1005.04
2019-02-14T11:20:48.581Z,1005.01
2019-02-14T11:21:48.767Z,1005.04
2019-02-14T11:22:49.435Z,1005.00
2019-02-14T11:23:49.162Z,1005.01
2019-02-14T11:24:49.352Z,1005.01
2019-02-14T11:25:49.536Z,1005.01
2019-02-14T11:26:49.720Z,1005.05
2019-02-14T11:27:49.910Z,1005.06
2019-02-14T11:28:50.085Z,1005.12
2019-02-14T11:29:50.275Z,1005.06
2019-02-14T11:30:50.466Z,1005.14
2019-02-14T11:31:50.653Z,1005.14
2019-02-14T11:32:50.843Z,1005.07
2019-02-14T11:33:51.026Z,1005.15
2019-02-14T11:34:51.218Z,1005.12
2019-02-14T11:35:51.405Z,1005.03
2019-02-14T11:36:51.597Z,1005.04
2019-02-14T11:37:51.786Z,1005.00
2019-02-14T11:38:51.978Z,1005.05
2019-02-14T11:39:52.168Z,1005.07
2019-02-14T11:40:52.357Z,1005.01
2019-02-14T11:41:52.555Z,1005.02
2019-02-14T11:42:52.741Z,1005.03
2019-02-14T11:43:52.932Z,1005.07
2019-02-14T11:44:53.132Z,1005.01
2019-02-14T11:45:53.324Z,1005.05
2019-02-14T11:46:53.515Z,1005.03
2019-02-14T11:47:53.697Z,1005.01
2019-02-14T11:48:53.888Z,1005.10
2019-02-14T11:49:54.081Z,1005.13
2019-02-14T11:50:54.274Z,1005.21
2019-02-14T11:51:54.478Z,1005.18
2019-02-14T11:52:54.663Z,1005.25
2019-02-14T11:53:54.858Z,1005.33
2019-02-14T11:54:55.052Z,1005.33
2019-02-14T11:55:55.348Z,1005.36
2019-02-14T11:56:55.444Z,1005.36
2019-02-14T11:57:55.630Z,1005.37
2019-02-14T11:58:55.820Z,1005.05
2019-02-14T11:59:56.027Z,1005.01
2019-02-14T12:00:56.222Z,1005.25
2019-02-14T12:01:56.412Z,1005.22
2019-02-14T12:02:56.679Z,1005.17
2019-02-14T12:03:56.825Z,1005.19
2019-02-14T12:04:57.022Z,1005.10
2019-02-14T12:05:57.213Z,1005.07
2019-02-14T12:06:57.410Z,1005.07
2019-02-14T12:07:57.600Z,1005.04